sensor_id;sensor_type;location;lat;lon;timestamp;P1;durP1;ratioP1;P2;durP2;ratioP2
48935;SDS011;34745;52.276;10.528;2023-04-06T00:00:43;4.63;;;4.20;;
48935;SDS011;34745;52.276;10.528;2023-04-06T00:03:10;9.30;;;4.53;;
48935;SDS011;34745;52.276;10.528;2023-04-06T00:05:37;6.37;;;4.60;;
48935;SDS011;34745;52.276;10.528;2023-04-06T00:08:05;10.73;;;4.67;;
48935;SDS011;34745;52.276;10.528;2023-04-06T00:10:32;6.97;;;4.90;;
48935;SDS011;34745;52.276;10.528;2023-04-06T00:12:59;9.20;;;4.63;;
48935;SDS011;34745;52.276;10.528;2023-04-06T00:15:26;9.20;;;4.60;;
48935;SDS011;34745;52.276;10.528;2023-04-06T00:17:55;9.43;;;4.67;;
48935;SDS011;34745;52.276;10.528;2023-04-06T00:20:22;7.33;;;4.77;;
48935;SDS011;34745;52.276;10.528;2023-04-06T00:22:49;5.53;;;4.30;;
48935;SDS011;34745;52.276;10.528;2023-04-06T00:25:16;4.93;;;4.30;;
48935;SDS011;34745;52.276;10.528;2023-04-06T00:27:44;6.83;;;4.73;;
48935;SDS011;34745;52.276;10.528;2023-04-06T00:30:11;11.13;;;5.03;;
48935;SDS011;34745;52.276;10.528;2023-04-06T00:32:38;6.90;;;4.57;;
48935;SDS011;34745;52.276;10.528;2023-04-06T00:35:07;16.37;;;5.00;;
48935;SDS011;34745;52.276;10.528;2023-04-06T00:37:35;12.30;;;5.20;;
48935;SDS011;34745;52.276;10.528;2023-04-06T00:40:02;6.97;;;4.67;;
48935;SDS011;34745;52.276;10.528;2023-04-06T00:42:29;8.50;;;4.60;;
48935;SDS011;34745;52.276;10.528;2023-04-06T00:44:57;9.20;;;4.93;;
48935;SDS011;34745;52.276;10.528;2023-04-06T00:47:25;7.87;;;4.67;;
48935;SDS011;34745;52.276;10.528;2023-04-06T00:49:53;7.33;;;4.83;;
48935;SDS011;34745;52.276;10.528;2023-04-06T00:52:22;7.67;;;5.00;;
48935;SDS011;34745;52.276;10.528;2023-04-06T00:54:49;6.83;;;4.93;;
48935;SDS011;34745;52.276;10.528;2023-04-06T00:57:17;7.23;;;4.80;;
48935;SDS011;34745;52.276;10.528;2023-04-06T00:59:44;7.30;;;4.80;;
48935;SDS011;34745;52.276;10.528;2023-04-06T01:02:12;6.93;;;4.97;;
48935;SDS011;34745;52.276;10.528;2023-04-06T01:04:39;12.77;;;5.30;;
48935;SDS011;34745;52.276;10.528;2023-04-06T01:07:06;8.93;;;5.37;;
48935;SDS011;34745;52.276;10.528;2023-04-06T01:09:34;7.43;;;4.77;;
48935;SDS011;34745;52.276;10.528;2023-04-06T01:12:02;12.90;;;5.30;;
48935;SDS011;34745;52.276;10.528;2023-04-06T01:14:29;6.03;;;5.23;;
48935;SDS011;34745;52.276;10.528;2023-04-06T01:16:57;8.80;;;5.10;;
48935;SDS011;34745;52.276;10.528;2023-04-06T01:19:27;9.50;;;5.67;;
48935;SDS011;34745;52.276;10.528;2023-04-06T01:21:54;6.97;;;4.90;;
48935;SDS011;34745;52.276;10.528;2023-04-06T01:24:23;7.60;;;5.10;;
48935;SDS011;34745;52.276;10.528;2023-04-06T01:26:50;8.33;;;5.20;;
48935;SDS011;34745;52.276;10.528;2023-04-06T01:29:17;6.70;;;5.10;;
48935;SDS011;34745;52.276;10.528;2023-04-06T01:31:44;8.83;;;5.50;;
48935;SDS011;34745;52.276;10.528;2023-04-06T01:34:11;7.73;;;5.17;;
48935;SDS011;34745;52.276;10.528;2023-04-06T01:36:38;11.20;;;5.60;;
48935;SDS011;34745;52.276;10.528;2023-04-06T01:39:05;7.73;;;5.47;;
48935;SDS011;34745;52.276;10.528;2023-04-06T01:41:34;6.83;;;5.10;;
48935;SDS011;34745;52.276;10.528;2023-04-06T01:44:01;6.47;;;4.97;;
48935;SDS011;34745;52.276;10.528;2023-04-06T01:46:29;16.23;;;5.60;;
48935;SDS011;34745;52.276;10.528;2023-04-06T01:48:56;8.13;;;5.60;;
48935;SDS011;34745;52.276;10.528;2023-04-06T01:51:23;9.73;;;5.80;;
48935;SDS011;34745;52.276;10.528;2023-04-06T01:53:52;7.73;;;5.53;;
48935;SDS011;34745;52.276;10.528;2023-04-06T01:56:19;10.20;;;5.50;;
48935;SDS011;34745;52.276;10.528;2023-04-06T01:58:47;8.17;;;5.67;;
48935;SDS011;34745;52.276;10.528;2023-04-06T02:01:15;10.27;;;5.30;;
48935;SDS011;34745;52.276;10.528;2023-04-06T02:03:42;10.73;;;5.87;;
48935;SDS011;34745;52.276;10.528;2023-04-06T02:06:09;8.53;;;6.43;;
48935;SDS011;34745;52.276;10.528;2023-04-06T02:08:36;7.87;;;6.03;;
48935;SDS011;34745;52.276;10.528;2023-04-06T02:11:03;9.10;;;6.20;;
48935;SDS011;34745;52.276;10.528;2023-04-06T02:13:30;8.13;;;6.10;;
48935;SDS011;34745;52.276;10.528;2023-04-06T02:15:59;11.57;;;6.60;;
48935;SDS011;34745;52.276;10.528;2023-04-06T02:18:26;9.07;;;5.60;;
48935;SDS011;34745;52.276;10.528;2023-04-06T02:20:54;8.67;;;6.27;;
48935;SDS011;34745;52.276;10.528;2023-04-06T02:23:22;9.63;;;5.77;;
48935;SDS011;34745;52.276;10.528;2023-04-06T02:25:49;8.70;;;5.90;;
48935;SDS011;34745;52.276;10.528;2023-04-06T02:28:16;9.83;;;6.23;;
48935;SDS011;34745;52.276;10.528;2023-04-06T02:30:43;7.80;;;5.77;;
48935;SDS011;34745;52.276;10.528;2023-04-06T02:33:11;8.33;;;6.07;;
48935;SDS011;34745;52.276;10.528;2023-04-06T02:35:39;12.13;;;6.53;;
48935;SDS011;34745;52.276;10.528;2023-04-06T02:38:06;14.23;;;6.50;;
48935;SDS011;34745;52.276;10.528;2023-04-06T02:40:33;8.83;;;6.40;;
48935;SDS011;34745;52.276;10.528;2023-04-06T02:43:00;9.90;;;6.53;;
48935;SDS011;34745;52.276;10.528;2023-04-06T02:45:27;12.40;;;6.67;;
48935;SDS011;34745;52.276;10.528;2023-04-06T02:47:54;8.63;;;6.10;;
48935;SDS011;34745;52.276;10.528;2023-04-06T02:50:22;10.03;;;6.60;;
48935;SDS011;34745;52.276;10.528;2023-04-06T02:52:49;19.20;;;6.80;;
48935;SDS011;34745;52.276;10.528;2023-04-06T02:55:16;12.97;;;6.63;;
48935;SDS011;34745;52.276;10.528;2023-04-06T02:57:46;10.57;;;6.57;;
48935;SDS011;34745;52.276;10.528;2023-04-06T03:00:13;9.67;;;6.60;;
48935;SDS011;34745;52.276;10.528;2023-04-06T03:02:40;8.23;;;6.77;;
48935;SDS011;34745;52.276;10.528;2023-04-06T03:05:08;8.97;;;6.67;;
48935;SDS011;34745;52.276;10.528;2023-04-06T03:10:53;10.10;;;6.90;;
48935;SDS011;34745;52.276;10.528;2023-04-06T03:13:20;10.67;;;7.13;;
48935;SDS011;34745;52.276;10.528;2023-04-06T03:15:47;9.33;;;6.60;;
48935;SDS011;34745;52.276;10.528;2023-04-06T03:18:14;12.13;;;7.30;;
48935;SDS011;34745;52.276;10.528;2023-04-06T03:20:41;8.50;;;6.97;;
48935;SDS011;34745;52.276;10.528;2023-04-06T03:23:08;13.83;;;6.77;;
48935;SDS011;34745;52.276;10.528;2023-04-06T03:25:35;10.47;;;7.40;;
48935;SDS011;34745;52.276;10.528;2023-04-06T03:28:03;10.90;;;7.03;;
48935;SDS011;34745;52.276;10.528;2023-04-06T03:30:31;9.97;;;6.80;;
48935;SDS011;34745;52.276;10.528;2023-04-06T03:32:58;11.53;;;7.23;;
48935;SDS011;34745;52.276;10.528;2023-04-06T03:35:25;11.57;;;7.77;;
48935;SDS011;34745;52.276;10.528;2023-04-06T03:37:52;13.20;;;7.23;;
48935;SDS011;34745;52.276;10.528;2023-04-06T03:40:19;11.20;;;6.97;;
48935;SDS011;34745;52.276;10.528;2023-04-06T03:42:46;15.97;;;7.70;;
48935;SDS011;34745;52.276;10.528;2023-04-06T03:45:15;13.87;;;7.33;;
48935;SDS011;34745;52.276;10.528;2023-04-06T03:47:42;11.27;;;7.17;;
48935;SDS011;34745;52.276;10.528;2023-04-06T03:50:09;10.27;;;7.80;;
48935;SDS011;34745;52.276;10.528;2023-04-06T03:52:36;12.20;;;8.10;;
48935;SDS011;34745;52.276;10.528;2023-04-06T03:55:04;8.77;;;7.50;;
48935;SDS011;34745;52.276;10.528;2023-04-06T03:57:31;15.90;;;8.43;;
48935;SDS011;34745;52.276;10.528;2023-04-06T03:59:59;11.73;;;7.57;;
48935;SDS011;34745;52.276;10.528;2023-04-06T04:02:27;9.83;;;8.03;;
48935;SDS011;34745;52.276;10.528;2023-04-06T04:04:55;10.63;;;7.57;;
48935;SDS011;34745;52.276;10.528;2023-04-06T04:07:22;11.50;;;7.70;;
48935;SDS011;34745;52.276;10.528;2023-04-06T04:09:49;14.20;;;7.60;;
48935;SDS011;34745;52.276;10.528;2023-04-06T04:12:16;10.90;;;7.83;;
48935;SDS011;34745;52.276;10.528;2023-04-06T04:14:43;13.33;;;8.07;;
48935;SDS011;34745;52.276;10.528;2023-04-06T04:17:10;13.97;;;8.03;;
48935;SDS011;34745;52.276;10.528;2023-04-06T04:19:39;12.83;;;8.07;;
48935;SDS011;34745;52.276;10.528;2023-04-06T04:22:06;12.30;;;8.23;;
48935;SDS011;34745;52.276;10.528;2023-04-06T04:24:33;10.97;;;8.03;;
48935;SDS011;34745;52.276;10.528;2023-04-06T04:27:01;13.50;;;8.30;;
48935;SDS011;34745;52.276;10.528;2023-04-06T04:29:28;13.03;;;8.40;;
48935;SDS011;34745;52.276;10.528;2023-04-06T04:31:55;10.57;;;8.77;;
48935;SDS011;34745;52.276;10.528;2023-04-06T04:34:23;10.70;;;9.00;;
48935;SDS011;34745;52.276;10.528;2023-04-06T04:36:52;11.97;;;9.13;;
48935;SDS011;34745;52.276;10.528;2023-04-06T04:39:20;21.13;;;9.80;;
48935;SDS011;34745;52.276;10.528;2023-04-06T04:41:47;17.13;;;9.27;;
48935;SDS011;34745;52.276;10.528;2023-04-06T04:44:14;13.53;;;9.13;;
48935;SDS011;34745;52.276;10.528;2023-04-06T04:46:41;12.50;;;9.03;;
48935;SDS011;34745;52.276;10.528;2023-04-06T04:49:09;16.43;;;9.53;;
48935;SDS011;34745;52.276;10.528;2023-04-06T04:51:36;14.90;;;8.63;;
48935;SDS011;34745;52.276;10.528;2023-04-06T04:54:05;11.53;;;8.70;;
48935;SDS011;34745;52.276;10.528;2023-04-06T04:56:32;16.00;;;9.03;;
48935;SDS011;34745;52.276;10.528;2023-04-06T04:58:59;12.60;;;9.03;;
48935;SDS011;34745;52.276;10.528;2023-04-06T05:01:26;12.30;;;8.97;;
48935;SDS011;34745;52.276;10.528;2023-04-06T05:03:53;12.87;;;9.80;;
48935;SDS011;34745;52.276;10.528;2023-04-06T05:06:21;13.33;;;9.40;;
48935;SDS011;34745;52.276;10.528;2023-04-06T05:08:48;11.93;;;8.53;;
48935;SDS011;34745;52.276;10.528;2023-04-06T05:11:16;16.23;;;10.10;;
48935;SDS011;34745;52.276;10.528;2023-04-06T05:13:44;21.20;;;9.73;;
48935;SDS011;34745;52.276;10.528;2023-04-06T05:16:11;17.23;;;10.23;;
48935;SDS011;34745;52.276;10.528;2023-04-06T05:18:38;12.03;;;9.10;;
48935;SDS011;34745;52.276;10.528;2023-04-06T05:21:05;13.90;;;9.50;;
48935;SDS011;34745;52.276;10.528;2023-04-06T05:23:32;10.70;;;9.07;;
48935;SDS011;34745;52.276;10.528;2023-04-06T05:25:59;16.37;;;9.80;;
48935;SDS011;34745;52.276;10.528;2023-04-06T05:28:28;15.93;;;10.07;;
48935;SDS011;34745;52.276;10.528;2023-04-06T05:30:55;11.93;;;9.00;;
48935;SDS011;34745;52.276;10.528;2023-04-06T05:33:23;14.47;;;9.93;;
48935;SDS011;34745;52.276;10.528;2023-04-06T05:35:51;13.17;;;9.23;;
48935;SDS011;34745;52.276;10.528;2023-04-06T05:38:18;12.93;;;9.27;;
48935;SDS011;34745;52.276;10.528;2023-04-06T05:40:46;11.63;;;9.30;;
48935;SDS011;34745;52.276;10.528;2023-04-06T05:43:13;12.93;;;9.63;;
48935;SDS011;34745;52.276;10.528;2023-04-06T05:45:43;11.03;;;9.47;;
48935;SDS011;34745;52.276;10.528;2023-04-06T05:48:10;14.30;;;9.90;;
48935;SDS011;34745;52.276;10.528;2023-04-06T05:50:37;12.17;;;9.43;;
48935;SDS011;34745;52.276;10.528;2023-04-06T05:53:04;16.17;;;9.23;;
48935;SDS011;34745;52.276;10.528;2023-04-06T05:55:32;11.00;;;9.80;;
48935;SDS011;34745;52.276;10.528;2023-04-06T05:57:59;12.17;;;9.60;;
48935;SDS011;34745;52.276;10.528;2023-04-06T06:00:26;12.70;;;10.00;;
48935;SDS011;34745;52.276;10.528;2023-04-06T06:02:54;13.83;;;9.37;;
48935;SDS011;34745;52.276;10.528;2023-04-06T06:05:22;11.77;;;9.77;;
48935;SDS011;34745;52.276;10.528;2023-04-06T06:07:49;15.37;;;10.07;;
48935;SDS011;34745;52.276;10.528;2023-04-06T06:10:16;13.13;;;9.90;;
48935;SDS011;34745;52.276;10.528;2023-04-06T06:12:43;13.27;;;8.80;;
48935;SDS011;34745;52.276;10.528;2023-04-06T06:15:11;14.23;;;9.57;;
48935;SDS011;34745;52.276;10.528;2023-04-06T06:17:38;13.67;;;9.93;;
48935;SDS011;34745;52.276;10.528;2023-04-06T06:20:07;11.33;;;9.70;;
48935;SDS011;34745;52.276;10.528;2023-04-06T06:22:35;11.40;;;9.00;;
48935;SDS011;34745;52.276;10.528;2023-04-06T06:25:02;11.40;;;9.43;;
48935;SDS011;34745;52.276;10.528;2023-04-06T06:27:30;14.10;;;9.97;;
48935;SDS011;34745;52.276;10.528;2023-04-06T06:29:57;12.90;;;9.03;;
48935;SDS011;34745;52.276;10.528;2023-04-06T06:32:24;14.47;;;10.27;;
48935;SDS011;34745;52.276;10.528;2023-04-06T06:34:51;13.63;;;9.57;;
48935;SDS011;34745;52.276;10.528;2023-04-06T06:37:20;13.03;;;9.13;;
48935;SDS011;34745;52.276;10.528;2023-04-06T06:39:47;13.10;;;8.70;;
48935;SDS011;34745;52.276;10.528;2023-04-06T06:42:14;10.00;;;8.57;;
48935;SDS011;34745;52.276;10.528;2023-04-06T06:44:41;11.90;;;7.63;;
48935;SDS011;34745;52.276;10.528;2023-04-06T06:47:08;11.93;;;7.90;;
48935;SDS011;34745;52.276;10.528;2023-04-06T06:49:36;10.20;;;8.10;;
48935;SDS011;34745;52.276;10.528;2023-04-06T06:52:03;9.90;;;7.70;;
48935;SDS011;34745;52.276;10.528;2023-04-06T06:54:32;9.13;;;7.57;;
48935;SDS011;34745;52.276;10.528;2023-04-06T06:56:59;10.27;;;7.37;;
48935;SDS011;34745;52.276;10.528;2023-04-06T06:59:26;14.37;;;7.37;;
48935;SDS011;34745;52.276;10.528;2023-04-06T07:01:54;15.13;;;7.33;;
48935;SDS011;34745;52.276;10.528;2023-04-06T07:04:21;13.93;;;8.73;;
48935;SDS011;34745;52.276;10.528;2023-04-06T07:06:48;11.17;;;8.27;;
48935;SDS011;34745;52.276;10.528;2023-04-06T07:09:16;11.17;;;8.40;;
48935;SDS011;34745;52.276;10.528;2023-04-06T07:11:44;12.47;;;8.17;;
48935;SDS011;34745;52.276;10.528;2023-04-06T07:14:11;13.90;;;6.90;;
48935;SDS011;34745;52.276;10.528;2023-04-06T07:16:38;8.60;;;7.10;;
48935;SDS011;34745;52.276;10.528;2023-04-06T07:19:06;10.27;;;7.07;;
48935;SDS011;34745;52.276;10.528;2023-04-06T07:21:33;9.03;;;6.73;;
48935;SDS011;34745;52.276;10.528;2023-04-06T07:24:00;7.70;;;6.83;;
48935;SDS011;34745;52.276;10.528;2023-04-06T07:26:28;8.80;;;7.30;;
48935;SDS011;34745;52.276;10.528;2023-04-06T07:28:56;11.67;;;7.57;;
48935;SDS011;34745;52.276;10.528;2023-04-06T07:31:23;11.63;;;7.30;;
48935;SDS011;34745;52.276;10.528;2023-04-06T07:33:51;8.93;;;7.43;;
48935;SDS011;34745;52.276;10.528;2023-04-06T07:36:18;8.57;;;7.50;;
48935;SDS011;34745;52.276;10.528;2023-04-06T07:38:45;9.87;;;7.93;;
48935;SDS011;34745;52.276;10.528;2023-04-06T07:41:12;10.33;;;7.63;;
48935;SDS011;34745;52.276;10.528;2023-04-06T07:43:39;10.13;;;7.77;;
48935;SDS011;34745;52.276;10.528;2023-04-06T07:46:08;10.03;;;8.30;;
48935;SDS011;34745;52.276;10.528;2023-04-06T07:48:35;9.57;;;8.00;;
48935;SDS011;34745;52.276;10.528;2023-04-06T07:51:04;9.13;;;7.70;;
48935;SDS011;34745;52.276;10.528;2023-04-06T07:53:31;10.57;;;7.83;;
48935;SDS011;34745;52.276;10.528;2023-04-06T07:55:58;14.67;;;8.07;;
48935;SDS011;34745;52.276;10.528;2023-04-06T07:58:26;15.10;;;8.00;;
48935;SDS011;34745;52.276;10.528;2023-04-06T08:00:53;10.60;;;8.00;;
48935;SDS011;34745;52.276;10.528;2023-04-06T08:03:23;8.93;;;7.43;;
48935;SDS011;34745;52.276;10.528;2023-04-06T08:05:52;11.60;;;7.77;;
48935;SDS011;34745;52.276;10.528;2023-04-06T08:08:19;9.70;;;7.67;;
48935;SDS011;34745;52.276;10.528;2023-04-06T08:10:47;8.50;;;7.00;;
48935;SDS011;34745;52.276;10.528;2023-04-06T08:13:15;7.93;;;7.13;;
48935;SDS011;34745;52.276;10.528;2023-04-06T08:15:42;14.13;;;7.53;;
48935;SDS011;34745;52.276;10.528;2023-04-06T08:18:10;10.70;;;8.07;;
48935;SDS011;34745;52.276;10.528;2023-04-06T08:20:39;10.13;;;7.83;;
48935;SDS011;34745;52.276;10.528;2023-04-06T08:23:07;8.50;;;7.10;;
48935;SDS011;34745;52.276;10.528;2023-04-06T08:25:35;9.13;;;7.63;;
48935;SDS011;34745;52.276;10.528;2023-04-06T08:28:03;10.43;;;7.97;;
48935;SDS011;34745;52.276;10.528;2023-04-06T08:30:30;11.30;;;7.93;;
48935;SDS011;34745;52.276;10.528;2023-04-06T08:32:58;11.23;;;8.07;;
48935;SDS011;34745;52.276;10.528;2023-04-06T08:35:25;12.77;;;8.60;;
48935;SDS011;34745;52.276;10.528;2023-04-06T08:37:54;13.03;;;8.27;;
48935;SDS011;34745;52.276;10.528;2023-04-06T08:40:21;15.63;;;9.87;;
48935;SDS011;34745;52.276;10.528;2023-04-06T08:42:50;11.27;;;7.70;;
48935;SDS011;34745;52.276;10.528;2023-04-06T08:45:18;9.70;;;7.67;;
48935;SDS011;34745;52.276;10.528;2023-04-06T08:47:48;13.67;;;8.13;;
48935;SDS011;34745;52.276;10.528;2023-04-06T08:50:16;10.97;;;7.83;;
48935;SDS011;34745;52.276;10.528;2023-04-06T08:52:44;10.37;;;7.67;;
48935;SDS011;34745;52.276;10.528;2023-04-06T08:55:15;8.93;;;7.07;;
48935;SDS011;34745;52.276;10.528;2023-04-06T08:57:43;8.83;;;7.17;;
48935;SDS011;34745;52.276;10.528;2023-04-06T09:00:12;11.43;;;7.73;;
48935;SDS011;34745;52.276;10.528;2023-04-06T09:02:41;12.47;;;7.27;;
48935;SDS011;34745;52.276;10.528;2023-04-06T09:05:11;11.93;;;7.67;;
48935;SDS011;34745;52.276;10.528;2023-04-06T09:07:39;11.60;;;7.83;;
48935;SDS011;34745;52.276;10.528;2023-04-06T09:10:07;10.60;;;7.93;;
48935;SDS011;34745;52.276;10.528;2023-04-06T09:12:36;15.20;;;8.17;;
48935;SDS011;34745;52.276;10.528;2023-04-06T09:15:04;13.13;;;9.17;;
48935;SDS011;34745;52.276;10.528;2023-04-06T09:17:32;10.53;;;7.47;;
48935;SDS011;34745;52.276;10.528;2023-04-06T09:20:00;10.30;;;8.00;;
48935;SDS011;34745;52.276;10.528;2023-04-06T09:22:34;11.10;;;7.93;;
48935;SDS011;34745;52.276;10.528;2023-04-06T09:25:02;15.93;;;7.90;;
48935;SDS011;34745;52.276;10.528;2023-04-06T09:27:30;10.40;;;7.80;;
48935;SDS011;34745;52.276;10.528;2023-04-06T09:30:06;11.07;;;7.97;;
48935;SDS011;34745;52.276;10.528;2023-04-06T09:32:47;17.67;;;8.20;;
48935;SDS011;34745;52.276;10.528;2023-04-06T09:35:16;11.57;;;8.63;;
48935;SDS011;34745;52.276;10.528;2023-04-06T09:37:45;12.03;;;8.67;;
48935;SDS011;34745;52.276;10.528;2023-04-06T09:40:14;11.97;;;8.30;;
48935;SDS011;34745;52.276;10.528;2023-04-06T09:42:44;18.50;;;8.23;;
48935;SDS011;34745;52.276;10.528;2023-04-06T09:45:14;12.80;;;8.30;;
48935;SDS011;34745;52.276;10.528;2023-04-06T09:47:42;10.77;;;8.20;;
48935;SDS011;34745;52.276;10.528;2023-04-06T09:50:12;12.37;;;8.40;;
48935;SDS011;34745;52.276;10.528;2023-04-06T09:52:41;10.47;;;7.97;;
48935;SDS011;34745;52.276;10.528;2023-04-06T09:55:11;12.20;;;7.80;;
48935;SDS011;34745;52.276;10.528;2023-04-06T09:57:43;11.70;;;7.60;;
48935;SDS011;34745;52.276;10.528;2023-04-06T10:00:16;12.90;;;8.10;;
48935;SDS011;34745;52.276;10.528;2023-04-06T10:02:48;13.50;;;8.07;;
48935;SDS011;34745;52.276;10.528;2023-04-06T10:05:22;11.03;;;8.20;;
48935;SDS011;34745;52.276;10.528;2023-04-06T10:07:57;10.97;;;7.73;;
48935;SDS011;34745;52.276;10.528;2023-04-06T10:10:28;10.13;;;7.83;;
48935;SDS011;34745;52.276;10.528;2023-04-06T10:12:57;11.10;;;8.20;;
48935;SDS011;34745;52.276;10.528;2023-04-06T10:15:26;12.03;;;8.53;;
48935;SDS011;34745;52.276;10.528;2023-04-06T10:17:55;14.27;;;8.17;;
48935;SDS011;34745;52.276;10.528;2023-04-06T10:20:23;8.73;;;7.30;;
48935;SDS011;34745;52.276;10.528;2023-04-06T10:22:57;10.77;;;7.80;;
48935;SDS011;34745;52.276;10.528;2023-04-06T10:25:31;12.93;;;7.60;;
48935;SDS011;34745;52.276;10.528;2023-04-06T10:28:00;10.80;;;7.63;;
48935;SDS011;34745;52.276;10.528;2023-04-06T10:30:29;10.07;;;8.03;;
48935;SDS011;34745;52.276;10.528;2023-04-06T10:32:57;11.77;;;8.10;;
48935;SDS011;34745;52.276;10.528;2023-04-06T10:35:24;12.83;;;7.77;;
48935;SDS011;34745;52.276;10.528;2023-04-06T10:38:04;10.43;;;8.00;;
48935;SDS011;34745;52.276;10.528;2023-04-06T10:40:31;11.30;;;8.27;;
48935;SDS011;34745;52.276;10.528;2023-04-06T10:43:11;12.27;;;8.13;;
48935;SDS011;34745;52.276;10.528;2023-04-06T10:45:40;12.33;;;7.63;;
48935;SDS011;34745;52.276;10.528;2023-04-06T10:48:13;11.50;;;8.00;;
48935;SDS011;34745;52.276;10.528;2023-04-06T10:50:41;10.93;;;8.40;;
48935;SDS011;34745;52.276;10.528;2023-04-06T10:53:08;13.70;;;8.27;;
48935;SDS011;34745;52.276;10.528;2023-04-06T10:55:37;11.50;;;8.13;;
48935;SDS011;34745;52.276;10.528;2023-04-06T10:58:06;10.50;;;8.67;;
48935;SDS011;34745;52.276;10.528;2023-04-06T11:00:36;13.87;;;8.60;;
48935;SDS011;34745;52.276;10.528;2023-04-06T11:03:16;13.93;;;8.33;;
48935;SDS011;34745;52.276;10.528;2023-04-06T11:05:44;13.00;;;9.00;;
48935;SDS011;34745;52.276;10.528;2023-04-06T11:08:22;13.30;;;8.70;;
48935;SDS011;34745;52.276;10.528;2023-04-06T11:10:50;11.90;;;8.53;;
48935;SDS011;34745;52.276;10.528;2023-04-06T11:13:17;11.33;;;8.40;;
48935;SDS011;34745;52.276;10.528;2023-04-06T11:15:46;11.23;;;8.67;;
48935;SDS011;34745;52.276;10.528;2023-04-06T11:18:17;11.83;;;8.20;;
48935;SDS011;34745;52.276;10.528;2023-04-06T11:20:47;17.17;;;8.93;;
48935;SDS011;34745;52.276;10.528;2023-04-06T11:23:22;10.90;;;8.37;;
48935;SDS011;34745;52.276;10.528;2023-04-06T11:25:50;13.23;;;8.90;;
48935;SDS011;34745;52.276;10.528;2023-04-06T11:28:18;11.73;;;8.80;;
48935;SDS011;34745;52.276;10.528;2023-04-06T11:30:47;10.47;;;7.70;;
48935;SDS011;34745;52.276;10.528;2023-04-06T11:33:19;11.53;;;7.43;;
48935;SDS011;34745;52.276;10.528;2023-04-06T11:35:47;9.37;;;7.97;;
48935;SDS011;34745;52.276;10.528;2023-04-06T11:38:15;9.97;;;8.07;;
48935;SDS011;34745;52.276;10.528;2023-04-06T11:40:44;9.70;;;7.80;;
48935;SDS011;34745;52.276;10.528;2023-04-06T11:43:11;8.13;;;7.10;;
48935;SDS011;34745;52.276;10.528;2023-04-06T11:45:41;11.47;;;7.87;;
48935;SDS011;34745;52.276;10.528;2023-04-06T11:48:18;8.10;;;7.23;;
48935;SDS011;34745;52.276;10.528;2023-04-06T11:50:46;8.67;;;7.03;;
48935;SDS011;34745;52.276;10.528;2023-04-06T11:53:15;10.23;;;7.40;;
48935;SDS011;34745;52.276;10.528;2023-04-06T11:55:43;9.63;;;7.63;;
48935;SDS011;34745;52.276;10.528;2023-04-06T11:58:13;10.73;;;7.40;;
48935;SDS011;34745;52.276;10.528;2023-04-06T12:00:41;9.13;;;8.23;;
48935;SDS011;34745;52.276;10.528;2023-04-06T12:03:13;8.32;;;7.35;;
48935;SDS011;34745;52.276;10.528;2023-04-06T12:05:43;7.93;;;7.15;;
48935;SDS011;34745;52.276;10.528;2023-04-06T12:08:11;9.95;;;7.50;;
48935;SDS011;34745;52.276;10.528;2023-04-06T12:10:38;10.35;;;7.47;;
48935;SDS011;34745;52.276;10.528;2023-04-06T12:16:30;11.82;;;7.03;;
48935;SDS011;34745;52.276;10.528;2023-04-06T12:18:58;8.15;;;7.22;;
48935;SDS011;34745;52.276;10.528;2023-04-06T12:21:26;10.57;;;6.68;;
48935;SDS011;34745;52.276;10.528;2023-04-06T12:23:54;8.75;;;7.25;;
48935;SDS011;34745;52.276;10.528;2023-04-06T12:26:21;12.25;;;7.20;;
48935;SDS011;34745;52.276;10.528;2023-04-06T12:28:48;9.93;;;6.78;;
48935;SDS011;34745;52.276;10.528;2023-04-06T12:31:15;8.13;;;6.50;;
48935;SDS011;34745;52.276;10.528;2023-04-06T12:33:44;10.40;;;6.90;;
48935;SDS011;34745;52.276;10.528;2023-04-06T12:36:13;10.00;;;6.88;;
48935;SDS011;34745;52.276;10.528;2023-04-06T12:38:43;9.10;;;7.38;;
48935;SDS011;34745;52.276;10.528;2023-04-06T12:41:11;10.38;;;6.88;;
48935;SDS011;34745;52.276;10.528;2023-04-06T12:43:39;8.45;;;6.85;;
48935;SDS011;34745;52.276;10.528;2023-04-06T12:46:10;9.45;;;7.53;;
48935;SDS011;34745;52.276;10.528;2023-04-06T12:48:37;8.15;;;6.60;;
48935;SDS011;34745;52.276;10.528;2023-04-06T12:51:05;7.20;;;6.50;;
48935;SDS011;34745;52.276;10.528;2023-04-06T12:53:32;8.63;;;7.10;;
48935;SDS011;34745;52.276;10.528;2023-04-06T12:56:02;6.75;;;6.03;;
48935;SDS011;34745;52.276;10.528;2023-04-06T12:58:37;7.47;;;6.25;;
48935;SDS011;34745;52.276;10.528;2023-04-06T13:01:06;9.02;;;5.97;;
48935;SDS011;34745;52.276;10.528;2023-04-06T13:03:35;7.97;;;6.15;;
48935;SDS011;34745;52.276;10.528;2023-04-06T13:06:02;7.13;;;5.90;;
48935;SDS011;34745;52.276;10.528;2023-04-06T13:08:30;7.22;;;5.43;;
48935;SDS011;34745;52.276;10.528;2023-04-06T13:10:57;9.75;;;5.75;;
48935;SDS011;34745;52.276;10.528;2023-04-06T13:13:27;5.85;;;5.25;;
48935;SDS011;34745;52.276;10.528;2023-04-06T13:15:58;6.07;;;5.00;;
48935;SDS011;34745;52.276;10.528;2023-04-06T13:18:27;5.93;;;5.05;;
48935;SDS011;34745;52.276;10.528;2023-04-06T13:20:55;6.38;;;5.00;;
48935;SDS011;34745;52.276;10.528;2023-04-06T13:23:22;8.55;;;4.63;;
48935;SDS011;34745;52.276;10.528;2023-04-06T13:25:56;6.38;;;5.10;;
48935;SDS011;34745;52.276;10.528;2023-04-06T13:28:26;7.03;;;5.38;;
48935;SDS011;34745;52.276;10.528;2023-04-06T13:30:54;5.45;;;4.90;;
48935;SDS011;34745;52.276;10.528;2023-04-06T13:33:21;6.90;;;5.80;;
48935;SDS011;34745;52.276;10.528;2023-04-06T13:35:49;6.05;;;5.50;;
48935;SDS011;34745;52.276;10.528;2023-04-06T13:38:16;10.65;;;7.53;;
48935;SDS011;34745;52.276;10.528;2023-04-06T13:40:43;6.90;;;5.32;;
48935;SDS011;34745;52.276;10.528;2023-04-06T13:43:10;6.03;;;5.28;;
48935;SDS011;34745;52.276;10.528;2023-04-06T13:45:39;6.40;;;5.25;;
48935;SDS011;34745;52.276;10.528;2023-04-06T13:48:06;6.07;;;5.47;;
48935;SDS011;34745;52.276;10.528;2023-04-06T13:50:33;5.55;;;5.00;;
48935;SDS011;34745;52.276;10.528;2023-04-06T13:53:01;10.30;;;5.45;;
48935;SDS011;34745;52.276;10.528;2023-04-06T13:55:28;8.13;;;5.30;;
48935;SDS011;34745;52.276;10.528;2023-04-06T13:57:58;5.80;;;5.20;;
48935;SDS011;34745;52.276;10.528;2023-04-06T14:00:25;6.20;;;5.60;;
48935;SDS011;34745;52.276;10.528;2023-04-06T14:02:54;6.70;;;5.50;;
48935;SDS011;34745;52.276;10.528;2023-04-06T14:05:21;10.30;;;5.28;;
48935;SDS011;34745;52.276;10.528;2023-04-06T14:07:50;6.57;;;5.40;;
48935;SDS011;34745;52.276;10.528;2023-04-06T14:10:17;6.78;;;5.68;;
48935;SDS011;34745;52.276;10.528;2023-04-06T14:12:44;6.38;;;5.53;;
48935;SDS011;34745;52.276;10.528;2023-04-06T14:15:12;6.65;;;5.85;;
48935;SDS011;34745;52.276;10.528;2023-04-06T14:17:39;6.35;;;5.60;;
48935;SDS011;34745;52.276;10.528;2023-04-06T14:20:08;7.20;;;5.68;;
48935;SDS011;34745;52.276;10.528;2023-04-06T14:22:40;7.32;;;5.55;;
48935;SDS011;34745;52.276;10.528;2023-04-06T14:25:09;7.70;;;6.07;;
48935;SDS011;34745;52.276;10.528;2023-04-06T14:27:37;5.95;;;5.35;;
48935;SDS011;34745;52.276;10.528;2023-04-06T14:30:05;6.13;;;5.53;;
48935;SDS011;34745;52.276;10.528;2023-04-06T14:32:33;6.55;;;5.32;;
48935;SDS011;34745;52.276;10.528;2023-04-06T14:35:00;6.10;;;5.28;;
48935;SDS011;34745;52.276;10.528;2023-04-06T14:37:31;5.70;;;5.20;;